Shin Chun — VRFD2 — position and weather

sailwx.info

Track history (hours):
 
Tides and Currents Weather Stations Pressure Air Temp Water Temp Dewpoint Dewpoint Depression Visibility Wind Speed Wind Dir Waves Ship Positions

Shin Chun

Last reported at 2015-Mar-05 18:33 UTC. Time now 2015-Mar-05 18:48 UTC.
Position N 22°32' E 120°10'.

Length 152 m; draft 7 m.

Type: Cargo ship. MMSI: 477218300.

Date/timePositionNaut miles runAvg speedWind from/ knotsBaromVisibWave heightAir tempDewpointWater temp
2015-Mar-05 18:33N 22°32' E 120°10'1 1.2
2015-Mar-05 17:33N 22°33' E 120°10'1110.5
2015-Mar-05 16:33N 22°40' E 120°01'1313.4
2015-Mar-05 15:33N 22°49' E 119°50'1413.1
2015-Mar-05 14:28N 22°58' E 119°39'10011.3
2015-Mar-05 05:33N 24°09' E 118°21'1312.9
2015-Mar-05 04:33N 24°19' E 118°12'1211.8
2015-Mar-05 03:34N 24°27' E 118°03'4 3.6
2015-Mar-05 02:25N 24°31' E 118°05'0 0.0
2015-Mar-05 01:28N 24°31' E 118°05'0 0.0
2015-Mar-05 00:34N 24°31' E 118°05'0 0.0
2015-Mar-04 23:30N 24°31' E 118°05'0 0.0
2015-Mar-04 22:27N 24°31' E 118°05'0 0.0
2015-Mar-04 21:27N 24°31' E 118°05'0 0.0
2015-Mar-04 20:33N 24°31' E 118°05'0 0.0
2015-Mar-04 19:21N 24°31' E 118°05'0 0.0
2015-Mar-04 18:21N 24°31' E 118°05'0 0.0
2015-Mar-04 17:33N 24°31' E 118°05'0 0.0
2015-Mar-04 16:33N 24°31' E 118°05'0 0.0
2015-Mar-04 15:24N 24°31' E 118°05'0 0.0
2015-Mar-04 14:33N 24°31' E 118°05'0 0.0
2015-Mar-04 13:27N 24°31' E 118°05'0 0.0
2015-Mar-04 12:30N 24°31' E 118°05'0 0.0
2015-Mar-04 11:33N 24°31' E 118°05'0 0.0
2015-Mar-04 10:33N 24°31' E 118°05'0 0.0
2015-Mar-04 09:33N 24°31' E 118°05'0 0.0
2015-Mar-04 08:33N 24°31' E 118°05'0 0.0
2015-Mar-04 07:33N 24°31' E 118°05'0 0.0
2015-Mar-04 06:24N 24°31' E 118°05'0 0.0
2015-Mar-04 05:33N 24°31' E 118°05'5 5.4
2015-Mar-04 04:33N 24°26' E 118°04'8 6.2
2015-Mar-04 03:12N 24°21' E 118°11'0 0.0
2015-Mar-04 02:07N 24°21' E 118°11'0 0.0
2015-Mar-04 01:24N 24°21' E 118°11'0 0.0
2015-Mar-04 00:24N 24°21' E 118°11'6 6.6
2015-Mar-03 23:33N 24°16' E 118°15'1110.4
2015-Mar-03 22:32N 24°16' E 118°26'1413.2
2015-Mar-03 21:28N 24°20' E 118°41'118 2.8
2015-Mar-02 03:24N 22°50' E 120°03'1011.7
2015-Mar-02 02:33N 22°42' E 120°09'10 9.9
2015-Mar-02 01:33N 22°36' E 120°17'1 1.3
2015-Mar-02 00:33N 22°35' E 120°18'0 0.0
2015-Mar-01 23:32N 22°35' E 120°18'0 0.0
2015-Mar-01 22:32N 22°35' E 120°18'0 0.0
2015-Mar-01 21:26N 22°35' E 120°18'0 0.0
2015-Mar-01 20:32N 22°35' E 120°18'0 0.1
2015-Mar-01 19:34N 22°35' E 120°18'7 6.7
2015-Mar-01 18:34N 22°38' E 120°12'3 3.0
2015-Mar-01 17:33N 22°40' E 120°09'1 1.3
2015-Mar-01 16:34N 22°40' E 120°08'1312.6
2015-Mar-01 15:33N 22°52' E 120°02'17313.9
2015-Mar-01 03:06N 25°44' E 119°59'813.8
2015-Mar-01 02:30N 25°51' E 119°54'1513.6
2015-Mar-01 01:24N 26°05' E 119°47'1110.5
2015-Mar-01 00:22N 26°08' E 119°35'810.2
2015-Feb-28 23:33N 26°01' E 119°30'1 1.1
2015-Feb-28 22:29N 26°00' E 119°29'0 0.0
2015-Feb-28 21:23N 26°00' E 119°29'0 0.0
2015-Feb-28 20:29N 26°00' E 119°29'0 0.0
2015-Feb-28 16:29N 26°00' E 119°29'0 0.0
2015-Feb-28 15:29N 26°00' E 119°29'0 0.0
2015-Feb-28 14:29N 26°00' E 119°29'0 0.0
2015-Feb-28 13:29N 26°00' E 119°29'0 0.0
2015-Feb-28 12:29N 26°00' E 119°29'0 0.0
2015-Feb-28 11:29N 26°00' E 119°29'0 0.0
2015-Feb-28 10:29N 26°00' E 119°29'0 0.0
2015-Feb-28 09:29N 26°00' E 119°29'0 0.0
2015-Feb-28 08:23N 26°00' E 119°29'0 0.0
2015-Feb-28 07:29N 26°00' E 119°29'0 0.0
2015-Feb-28 06:29N 26°00' E 119°29'0 0.0
2015-Feb-28 05:33N 26°00' E 119°29'2 2.0
2015-Feb-28 04:33N 26°02' E 119°30'11 8.1
2015-Feb-28 03:14N 26°06' E 119°41'911.7
2015-Feb-28 02:30N 26°03' E 119°50'4113.7
2015-Feb-27 23:30N 25°23' E 119°59'14613.1
2015-Feb-27 12:23N 22°57' E 119°58'1113.6
2015-Feb-27 11:33N 22°47' E 120°04'1414.1
2015-Feb-27 10:33N 22°35' E 120°12'6 5.9
2015-Feb-27 09:33N 22°35' E 120°18'0 0.0
2015-Feb-27 08:24N 22°35' E 120°18'0 0.0
2015-Feb-27 07:30N 22°35' E 120°18'0 0.0
2015-Feb-27 06:24N 22°35' E 120°18'0 0.0
2015-Feb-27 05:30N 22°35' E 120°18'4 4.6
2015-Feb-27 04:33N 22°37' E 120°14'2 1.6
2015-Feb-27 03:33N 22°37' E 120°13'0 0.0
2015-Feb-27 02:33N 22°37' E 120°13'0 0.0
2015-Feb-27 01:33N 22°37' E 120°13'0 0.0
2015-Feb-27 00:33N 22°37' E 120°13'0 0.0
2015-Feb-26 23:33N 22°37' E 120°13'0 0.0
2015-Feb-26 22:33N 22°37' E 120°13'0 0.0
2015-Feb-26 21:33N 22°37' E 120°13'0 0.0
2015-Feb-26 20:33N 22°37' E 120°13'0 0.0
2015-Feb-26 19:32N 22°37' E 120°13'0 0.0
2015-Feb-26 18:33N 22°37' E 120°13'0 0.0
2015-Feb-26 17:33N 22°37' E 120°13'0 0.0
2015-Feb-26 16:33N 22°37' E 120°13'0 0.1
2015-Feb-26 15:33N 22°37' E 120°13'1212.4
2015-Feb-26 14:33N 22°44' E 120°02'1414.0
2015-Feb-26 13:33N 22°52' E 119°49'1514.6
2015-Feb-26 12:33N 22°60' E 119°36'1514.6
2015-Feb-26 11:33N 23°09' E 119°23'1515.0
2015-Feb-26 10:33N 23°21' E 119°13'5813.5
2015-Feb-26 06:14N 24°02' E 118°28'912.6
2015-Feb-26 05:33N 24°08' E 118°21'1313.0
2015-Feb-26 04:33N 24°18' E 118°13'1312.7
2015-Feb-26 03:33N 24°27' E 118°03'4 4.2
2015-Feb-26 02:30N 24°31' E 118°05'0 0.0
2015-Feb-26 01:33N 24°31' E 118°05'0 0.0
2015-Feb-26 00:30N 24°31' E 118°05'0 0.0
2015-Feb-25 23:30N 24°31' E 118°05'0 0.0
2015-Feb-25 22:30N 24°31' E 118°05'0 0.0
2015-Feb-25 21:30N 24°31' E 118°05'0 0.0
2015-Feb-25 20:30N 24°31' E 118°05'0 0.0
2015-Feb-25 19:33N 24°31' E 118°05'0 0.0
2015-Feb-25 18:30N 24°31' E 118°05'0 0.0
2015-Feb-25 17:30N 24°31' E 118°05'0 0.0
2015-Feb-25 16:30N 24°31' E 118°05'0 0.0
2015-Feb-25 15:30N 24°31' E 118°05'0 0.0
2015-Feb-25 14:30N 24°31' E 118°05'0 0.0
2015-Feb-25 13:24N 24°31' E 118°05'0 0.0
2015-Feb-25 12:27N 24°31' E 118°05'0 0.0
2015-Feb-25 11:33N 24°31' E 118°05'0 0.0
2015-Feb-25 10:33N 24°31' E 118°05'0 0.0
2015-Feb-25 09:30N 24°31' E 118°05'0 0.0
2015-Feb-25 08:30N 24°31' E 118°05'0 0.0
2015-Feb-25 07:33N 24°31' E 118°05'0 0.0
2015-Feb-25 06:24N 24°31' E 118°05'0 0.1
2015-Feb-25 05:33N 24°31' E 118°05'8 8.5
2015-Feb-25 04:33N 24°23' E 118°07'6 5.7
2015-Feb-25 03:33N 24°20' E 118°12'0 0.1
2015-Feb-25 02:33N 24°19' E 118°12'0 0.0
2015-Feb-25 01:33N 24°19' E 118°12'0 0.0
2015-Feb-25 00:33N 24°19' E 118°12'0 0.1
2015-Feb-24 23:33N 24°19' E 118°12'0 0.0
2015-Feb-24 22:31N 24°19' E 118°12'1 0.6
2015-Feb-24 21:33N 24°19' E 118°12'1110.6
2015-Feb-24 20:33N 24°14' E 118°23'1414.0
2015-Feb-24 19:33N 24°19' E 118°37'2713.6
2015-Feb-24 17:31N 24°30' E 119°05'1313.1
2015-Feb-24 16:33N 24°35' E 119°18'  
Track history (hours):
 
Tides and Currents Weather Stations Pressure Air Temp Water Temp Dewpoint Dewpoint Depression Visibility Wind Speed Wind Dir Waves Ship Positions

Shin Chun

Last reported at 2015-Mar-05 18:33 UTC. Time now 2015-Mar-05 18:48 UTC.
Position N 22°32' E 120°10'.

Length 152 m; draft 7 m.

Type: Cargo ship. MMSI: 477218300.

Date/timePositionNaut miles runAvg speedWind from/ knotsBaromVisibWave heightAir tempDewpointWater temp
2015-Mar-05 18:33N 22°32' E 120°10'1 1.2
2015-Mar-05 17:33N 22°33' E 120°10'1110.5
2015-Mar-05 16:33N 22°40' E 120°01'1313.4
2015-Mar-05 15:33N 22°49' E 119°50'1413.1
2015-Mar-05 14:28N 22°58' E 119°39'10011.3
2015-Mar-05 05:33N 24°09' E 118°21'1312.9
2015-Mar-05 04:33N 24°19' E 118°12'1211.8
2015-Mar-05 03:34N 24°27' E 118°03'4 3.6
2015-Mar-05 02:25N 24°31' E 118°05'0 0.0
2015-Mar-05 01:28N 24°31' E 118°05'0 0.0
2015-Mar-05 00:34N 24°31' E 118°05'0 0.0
2015-Mar-04 23:30N 24°31' E 118°05'0 0.0
2015-Mar-04 22:27N 24°31' E 118°05'0 0.0
2015-Mar-04 21:27N 24°31' E 118°05'0 0.0
2015-Mar-04 20:33N 24°31' E 118°05'0 0.0
2015-Mar-04 19:21N 24°31' E 118°05'0 0.0
2015-Mar-04 18:21N 24°31' E 118°05'0 0.0
2015-Mar-04 17:33N 24°31' E 118°05'0 0.0
2015-Mar-04 16:33N 24°31' E 118°05'0 0.0
2015-Mar-04 15:24N 24°31' E 118°05'0 0.0
2015-Mar-04 14:33N 24°31' E 118°05'0 0.0
2015-Mar-04 13:27N 24°31' E 118°05'0 0.0
2015-Mar-04 12:30N 24°31' E 118°05'0 0.0
2015-Mar-04 11:33N 24°31' E 118°05'0 0.0
2015-Mar-04 10:33N 24°31' E 118°05'0 0.0
2015-Mar-04 09:33N 24°31' E 118°05'0 0.0
2015-Mar-04 08:33N 24°31' E 118°05'0 0.0
2015-Mar-04 07:33N 24°31' E 118°05'0 0.0
2015-Mar-04 06:24N 24°31' E 118°05'0 0.0
2015-Mar-04 05:33N 24°31' E 118°05'5 5.4
2015-Mar-04 04:33N 24°26' E 118°04'8 6.2
2015-Mar-04 03:12N 24°21' E 118°11'0 0.0
2015-Mar-04 02:07N 24°21' E 118°11'0 0.0
2015-Mar-04 01:24N 24°21' E 118°11'0 0.0
2015-Mar-04 00:24N 24°21' E 118°11'6 6.6
2015-Mar-03 23:33N 24°16' E 118°15'1110.4
2015-Mar-03 22:32N 24°16' E 118°26'1413.2
2015-Mar-03 21:28N 24°20' E 118°41'118 2.8
2015-Mar-02 03:24N 22°50' E 120°03'1011.7
2015-Mar-02 02:33N 22°42' E 120°09'10 9.9
2015-Mar-02 01:33N 22°36' E 120°17'1 1.3
2015-Mar-02 00:33N 22°35' E 120°18'0 0.0
2015-Mar-01 23:32N 22°35' E 120°18'0 0.0
2015-Mar-01 22:32N 22°35' E 120°18'0 0.0
2015-Mar-01 21:26N 22°35' E 120°18'0 0.0
2015-Mar-01 20:32N 22°35' E 120°18'0 0.1
2015-Mar-01 19:34N 22°35' E 120°18'7 6.7
2015-Mar-01 18:34N 22°38' E 120°12'3 3.0
2015-Mar-01 17:33N 22°40' E 120°09'1 1.3
2015-Mar-01 16:34N 22°40' E 120°08'1312.6
2015-Mar-01 15:33N 22°52' E 120°02'17313.9
2015-Mar-01 03:06N 25°44' E 119°59'813.8
2015-Mar-01 02:30N 25°51' E 119°54'1513.6
2015-Mar-01 01:24N 26°05' E 119°47'1110.5
2015-Mar-01 00:22N 26°08' E 119°35'810.2
2015-Feb-28 23:33N 26°01' E 119°30'1 1.1
2015-Feb-28 22:29N 26°00' E 119°29'0 0.0
2015-Feb-28 21:23N 26°00' E 119°29'0 0.0
2015-Feb-28 20:29N 26°00' E 119°29'0 0.0
2015-Feb-28 16:29N 26°00' E 119°29'0 0.0
2015-Feb-28 15:29N 26°00' E 119°29'0 0.0
2015-Feb-28 14:29N 26°00' E 119°29'0 0.0
2015-Feb-28 13:29N 26°00' E 119°29'0 0.0
2015-Feb-28 12:29N 26°00' E 119°29'0 0.0
2015-Feb-28 11:29N 26°00' E 119°29'0 0.0
2015-Feb-28 10:29N 26°00' E 119°29'0 0.0
2015-Feb-28 09:29N 26°00' E 119°29'0 0.0
2015-Feb-28 08:23N 26°00' E 119°29'0 0.0
2015-Feb-28 07:29N 26°00' E 119°29'0 0.0
2015-Feb-28 06:29N 26°00' E 119°29'0 0.0
2015-Feb-28 05:33N 26°00' E 119°29'2 2.0
2015-Feb-28 04:33N 26°02' E 119°30'11 8.1
2015-Feb-28 03:14N 26°06' E 119°41'911.7
2015-Feb-28 02:30N 26°03' E 119°50'4113.7
2015-Feb-27 23:30N 25°23' E 119°59'14613.1
2015-Feb-27 12:23N 22°57' E 119°58'1113.6
2015-Feb-27 11:33N 22°47' E 120°04'1414.1
2015-Feb-27 10:33N 22°35' E 120°12'6 5.9
2015-Feb-27 09:33N 22°35' E 120°18'0 0.0
2015-Feb-27 08:24N 22°35' E 120°18'0 0.0
2015-Feb-27 07:30N 22°35' E 120°18'0 0.0
2015-Feb-27 06:24N 22°35' E 120°18'0 0.0
2015-Feb-27 05:30N 22°35' E 120°18'4 4.6
2015-Feb-27 04:33N 22°37' E 120°14'2 1.6
2015-Feb-27 03:33N 22°37' E 120°13'0 0.0
2015-Feb-27 02:33N 22°37' E 120°13'0 0.0
2015-Feb-27 01:33N 22°37' E 120°13'0 0.0
2015-Feb-27 00:33N 22°37' E 120°13'0 0.0
2015-Feb-26 23:33N 22°37' E 120°13'0 0.0
2015-Feb-26 22:33N 22°37' E 120°13'0 0.0
2015-Feb-26 21:33N 22°37' E 120°13'0 0.0
2015-Feb-26 20:33N 22°37' E 120°13'0 0.0
2015-Feb-26 19:32N 22°37' E 120°13'0 0.0
2015-Feb-26 18:33N 22°37' E 120°13'0 0.0
2015-Feb-26 17:33N 22°37' E 120°13'0 0.0
2015-Feb-26 16:33N 22°37' E 120°13'0 0.1
2015-Feb-26 15:33N 22°37' E 120°13'1212.4
2015-Feb-26 14:33N 22°44' E 120°02'1414.0
2015-Feb-26 13:33N 22°52' E 119°49'1514.6
2015-Feb-26 12:33N 22°60' E 119°36'1514.6
2015-Feb-26 11:33N 23°09' E 119°23'1515.0
2015-Feb-26 10:33N 23°21' E 119°13'5813.5
2015-Feb-26 06:14N 24°02' E 118°28'912.6
2015-Feb-26 05:33N 24°08' E 118°21'1313.0
2015-Feb-26 04:33N 24°18' E 118°13'1312.7
2015-Feb-26 03:33N 24°27' E 118°03'4 4.2
2015-Feb-26 02:30N 24°31' E 118°05'0 0.0
2015-Feb-26 01:33N 24°31' E 118°05'0 0.0
2015-Feb-26 00:30N 24°31' E 118°05'0 0.0
2015-Feb-25 23:30N 24°31' E 118°05'0 0.0
2015-Feb-25 22:30N 24°31' E 118°05'0 0.0
2015-Feb-25 21:30N 24°31' E 118°05'0 0.0
2015-Feb-25 20:30N 24°31' E 118°05'0 0.0
2015-Feb-25 19:33N 24°31' E 118°05'0 0.0
2015-Feb-25 18:30N 24°31' E 118°05'0 0.0
2015-Feb-25 17:30N 24°31' E 118°05'0 0.0
2015-Feb-25 16:30N 24°31' E 118°05'0 0.0
2015-Feb-25 15:30N 24°31' E 118°05'0 0.0
2015-Feb-25 14:30N 24°31' E 118°05'0 0.0
2015-Feb-25 13:24N 24°31' E 118°05'0 0.0
2015-Feb-25 12:27N 24°31' E 118°05'0 0.0
2015-Feb-25 11:33N 24°31' E 118°05'0 0.0
2015-Feb-25 10:33N 24°31' E 118°05'0 0.0
2015-Feb-25 09:30N 24°31' E 118°05'0 0.0
2015-Feb-25 08:30N 24°31' E 118°05'0 0.0
2015-Feb-25 07:33N 24°31' E 118°05'0 0.0
2015-Feb-25 06:24N 24°31' E 118°05'0 0.1
2015-Feb-25 05:33N 24°31' E 118°05'8 8.5
2015-Feb-25 04:33N 24°23' E 118°07'6 5.7
2015-Feb-25 03:33N 24°20' E 118°12'0 0.1
2015-Feb-25 02:33N 24°19' E 118°12'0 0.0
2015-Feb-25 01:33N 24°19' E 118°12'0 0.0
2015-Feb-25 00:33N 24°19' E 118°12'0 0.1
2015-Feb-24 23:33N 24°19' E 118°12'0 0.0
2015-Feb-24 22:31N 24°19' E 118°12'1 0.6
2015-Feb-24 21:33N 24°19' E 118°12'1110.6
2015-Feb-24 20:33N 24°14' E 118°23'1414.0
2015-Feb-24 19:33N 24°19' E 118°37'2713.6
2015-Feb-24 17:31N 24°30' E 119°05'1313.1
2015-Feb-24 16:33N 24°35' E 119°18'  

Dump ship's entire track history